sensor_id;sensor_type;location;lat;lon;timestamp;P1;durP1;ratioP1;P2;durP2;ratioP2
33954;SDS011;20233;50.804;7.126;2023-08-06T00:02:22;5.13;;;2.90;;
33954;SDS011;20233;50.804;7.126;2023-08-06T00:04:48;5.40;;;2.10;;
33954;SDS011;20233;50.804;7.126;2023-08-06T00:07:13;5.15;;;2.22;;
33954;SDS011;20233;50.804;7.126;2023-08-06T00:09:39;3.35;;;2.00;;
33954;SDS011;20233;50.804;7.126;2023-08-06T00:12:04;5.75;;;2.60;;
33954;SDS011;20233;50.804;7.126;2023-08-06T00:14:30;3.85;;;2.03;;
33954;SDS011;20233;50.804;7.126;2023-08-06T00:16:56;3.35;;;2.40;;
33954;SDS011;20233;50.804;7.126;2023-08-06T00:19:21;3.92;;;2.10;;
33954;SDS011;20233;50.804;7.126;2023-08-06T00:21:48;3.45;;;2.08;;
33954;SDS011;20233;50.804;7.126;2023-08-06T00:24:14;4.63;;;2.63;;
33954;SDS011;20233;50.804;7.126;2023-08-06T00:26:39;3.22;;;2.00;;
33954;SDS011;20233;50.804;7.126;2023-08-06T00:29:05;6.00;;;2.50;;
33954;SDS011;20233;50.804;7.126;2023-08-06T00:31:30;5.22;;;2.40;;
33954;SDS011;20233;50.804;7.126;2023-08-06T00:33:56;4.93;;;2.38;;
33954;SDS011;20233;50.804;7.126;2023-08-06T00:36:21;5.85;;;2.78;;
33954;SDS011;20233;50.804;7.126;2023-08-06T00:38:47;6.00;;;2.50;;
33954;SDS011;20233;50.804;7.126;2023-08-06T00:41:13;4.93;;;2.40;;
33954;SDS011;20233;50.804;7.126;2023-08-06T00:43:38;5.53;;;2.80;;
33954;SDS011;20233;50.804;7.126;2023-08-06T00:46:04;4.45;;;2.40;;
33954;SDS011;20233;50.804;7.126;2023-08-06T00:48:30;3.58;;;2.55;;
33954;SDS011;20233;50.804;7.126;2023-08-06T00:50:56;4.10;;;2.75;;
33954;SDS011;20233;50.804;7.126;2023-08-06T00:53:22;5.18;;;3.00;;
33954;SDS011;20233;50.804;7.126;2023-08-06T00:55:48;3.90;;;2.55;;
33954;SDS011;20233;50.804;7.126;2023-08-06T00:58:14;4.70;;;2.45;;
33954;SDS011;20233;50.804;7.126;2023-08-06T01:00:41;3.88;;;2.70;;
33954;SDS011;20233;50.804;7.126;2023-08-06T01:03:07;3.47;;;2.50;;
33954;SDS011;20233;50.804;7.126;2023-08-06T01:05:32;4.55;;;2.78;;
33954;SDS011;20233;50.804;7.126;2023-08-06T01:13:43;4.30;;;2.85;;
33954;SDS011;20233;50.804;7.126;2023-08-06T01:16:17;6.43;;;2.90;;
33954;SDS011;20233;50.804;7.126;2023-08-06T01:18:43;5.80;;;3.17;;
33954;SDS011;20233;50.804;7.126;2023-08-06T01:21:14;4.70;;;3.03;;
33954;SDS011;20233;50.804;7.126;2023-08-06T01:23:41;6.93;;;2.78;;
33954;SDS011;20233;50.804;7.126;2023-08-06T01:26:11;6.22;;;2.70;;
33954;SDS011;20233;50.804;7.126;2023-08-06T01:28:47;4.32;;;2.80;;
33954;SDS011;20233;50.804;7.126;2023-08-06T01:31:25;8.38;;;3.30;;
33954;SDS011;20233;50.804;7.126;2023-08-06T01:33:56;4.65;;;3.15;;
33954;SDS011;20233;50.804;7.126;2023-08-06T01:36:23;4.85;;;2.88;;
33954;SDS011;20233;50.804;7.126;2023-08-06T01:38:51;4.30;;;2.72;;
33954;SDS011;20233;50.804;7.126;2023-08-06T01:41:18;5.47;;;2.40;;
33954;SDS011;20233;50.804;7.126;2023-08-06T01:43:43;6.05;;;2.95;;
33954;SDS011;20233;50.804;7.126;2023-08-06T01:46:09;6.07;;;2.40;;
33954;SDS011;20233;50.804;7.126;2023-08-06T01:48:35;4.78;;;2.40;;
33954;SDS011;20233;50.804;7.126;2023-08-06T01:51:00;4.72;;;2.55;;
33954;SDS011;20233;50.804;7.126;2023-08-06T01:53:26;4.85;;;2.20;;
33954;SDS011;20233;50.804;7.126;2023-08-06T01:55:52;4.28;;;2.20;;
33954;SDS011;20233;50.804;7.126;2023-08-06T01:58:17;5.28;;;2.00;;
33954;SDS011;20233;50.804;7.126;2023-08-06T02:00:43;3.92;;;2.42;;
33954;SDS011;20233;50.804;7.126;2023-08-06T02:03:08;4.38;;;2.10;;
33954;SDS011;20233;50.804;7.126;2023-08-06T02:05:34;4.32;;;1.90;;
33954;SDS011;20233;50.804;7.126;2023-08-06T02:07:59;3.70;;;2.13;;
33954;SDS011;20233;50.804;7.126;2023-08-06T02:10:25;3.13;;;1.45;;
33954;SDS011;20233;50.804;7.126;2023-08-06T02:12:50;5.85;;;1.70;;
33954;SDS011;20233;50.804;7.126;2023-08-06T02:15:16;2.83;;;1.38;;
33954;SDS011;20233;50.804;7.126;2023-08-06T02:17:41;5.20;;;1.42;;
33954;SDS011;20233;50.804;7.126;2023-08-06T02:20:07;3.65;;;1.60;;
33954;SDS011;20233;50.804;7.126;2023-08-06T02:22:33;5.03;;;1.55;;
33954;SDS011;20233;50.804;7.126;2023-08-06T02:24:58;2.92;;;1.35;;
33954;SDS011;20233;50.804;7.126;2023-08-06T02:27:26;5.05;;;1.58;;
33954;SDS011;20233;50.804;7.126;2023-08-06T02:29:51;4.53;;;1.77;;
33954;SDS011;20233;50.804;7.126;2023-08-06T02:32:17;5.05;;;1.85;;
33954;SDS011;20233;50.804;7.126;2023-08-06T02:34:42;6.55;;;1.92;;
33954;SDS011;20233;50.804;7.126;2023-08-06T02:37:08;6.22;;;2.22;;
33954;SDS011;20233;50.804;7.126;2023-08-06T02:39:33;5.20;;;1.60;;
33954;SDS011;20233;50.804;7.126;2023-08-06T02:42:00;5.22;;;2.67;;
33954;SDS011;20233;50.804;7.126;2023-08-06T02:44:27;7.13;;;2.15;;
33954;SDS011;20233;50.804;7.126;2023-08-06T02:46:53;5.93;;;2.20;;
33954;SDS011;20233;50.804;7.126;2023-08-06T02:49:19;5.90;;;2.25;;
33954;SDS011;20233;50.804;7.126;2023-08-06T02:51:44;3.90;;;2.22;;
33954;SDS011;20233;50.804;7.126;2023-08-06T02:54:10;7.68;;;2.80;;
33954;SDS011;20233;50.804;7.126;2023-08-06T02:56:36;3.42;;;2.50;;
33954;SDS011;20233;50.804;7.126;2023-08-06T02:59:01;7.72;;;2.80;;
33954;SDS011;20233;50.804;7.126;2023-08-06T03:01:27;4.32;;;2.55;;
33954;SDS011;20233;50.804;7.126;2023-08-06T03:03:53;6.28;;;3.13;;
33954;SDS011;20233;50.804;7.126;2023-08-06T03:06:19;5.00;;;2.70;;
33954;SDS011;20233;50.804;7.126;2023-08-06T03:08:44;6.50;;;2.60;;
33954;SDS011;20233;50.804;7.126;2023-08-06T03:11:10;5.95;;;3.22;;
33954;SDS011;20233;50.804;7.126;2023-08-06T03:13:35;6.43;;;2.95;;
33954;SDS011;20233;50.804;7.126;2023-08-06T03:16:01;5.32;;;3.33;;
33954;SDS011;20233;50.804;7.126;2023-08-06T03:18:27;5.63;;;2.80;;
33954;SDS011;20233;50.804;7.126;2023-08-06T03:20:52;6.97;;;3.05;;
33954;SDS011;20233;50.804;7.126;2023-08-06T03:23:18;4.57;;;3.13;;
33954;SDS011;20233;50.804;7.126;2023-08-06T03:25:44;4.47;;;2.80;;
33954;SDS011;20233;50.804;7.126;2023-08-06T03:28:10;7.28;;;3.05;;
33954;SDS011;20233;50.804;7.126;2023-08-06T03:30:36;6.13;;;3.10;;
33954;SDS011;20233;50.804;7.126;2023-08-06T03:33:01;5.78;;;2.80;;
33954;SDS011;20233;50.804;7.126;2023-08-06T03:35:27;5.05;;;2.88;;
33954;SDS011;20233;50.804;7.126;2023-08-06T03:37:52;5.53;;;2.70;;
33954;SDS011;20233;50.804;7.126;2023-08-06T03:40:18;3.35;;;2.53;;
33954;SDS011;20233;50.804;7.126;2023-08-06T03:42:43;9.45;;;3.30;;
33954;SDS011;20233;50.804;7.126;2023-08-06T03:45:09;4.22;;;2.33;;
33954;SDS011;20233;50.804;7.126;2023-08-06T03:47:35;5.53;;;2.60;;
33954;SDS011;20233;50.804;7.126;2023-08-06T03:50:00;7.60;;;3.00;;
33954;SDS011;20233;50.804;7.126;2023-08-06T03:52:26;6.13;;;2.47;;
33954;SDS011;20233;50.804;7.126;2023-08-06T03:54:51;6.55;;;3.05;;
33954;SDS011;20233;50.804;7.126;2023-08-06T03:57:17;3.72;;;2.55;;
33954;SDS011;20233;50.804;7.126;2023-08-06T03:59:42;5.40;;;2.55;;
33954;SDS011;20233;50.804;7.126;2023-08-06T04:02:09;7.82;;;2.63;;
33954;SDS011;20233;50.804;7.126;2023-08-06T04:04:35;6.47;;;2.90;;
33954;SDS011;20233;50.804;7.126;2023-08-06T04:07:00;5.55;;;2.65;;
33954;SDS011;20233;50.804;7.126;2023-08-06T04:09:28;5.20;;;2.42;;
33954;SDS011;20233;50.804;7.126;2023-08-06T04:11:54;5.78;;;2.53;;
33954;SDS011;20233;50.804;7.126;2023-08-06T04:14:19;3.10;;;2.00;;
33954;SDS011;20233;50.804;7.126;2023-08-06T04:16:45;6.97;;;2.20;;
33954;SDS011;20233;50.804;7.126;2023-08-06T04:19:11;5.85;;;2.58;;
33954;SDS011;20233;50.804;7.126;2023-08-06T04:21:37;4.80;;;3.00;;
33954;SDS011;20233;50.804;7.126;2023-08-06T04:24:02;9.90;;;2.88;;
33954;SDS011;20233;50.804;7.126;2023-08-06T04:26:28;4.85;;;2.50;;
33954;SDS011;20233;50.804;7.126;2023-08-06T04:28:54;8.23;;;2.30;;
33954;SDS011;20233;50.804;7.126;2023-08-06T04:31:19;7.57;;;2.53;;
33954;SDS011;20233;50.804;7.126;2023-08-06T04:33:45;5.07;;;2.53;;
33954;SDS011;20233;50.804;7.126;2023-08-06T04:36:12;4.20;;;2.47;;
33954;SDS011;20233;50.804;7.126;2023-08-06T04:38:38;6.75;;;3.15;;
33954;SDS011;20233;50.804;7.126;2023-08-06T04:41:06;4.13;;;2.28;;
33954;SDS011;20233;50.804;7.126;2023-08-06T04:43:31;5.57;;;2.58;;
33954;SDS011;20233;50.804;7.126;2023-08-06T04:45:57;3.80;;;2.40;;
33954;SDS011;20233;50.804;7.126;2023-08-06T04:48:22;5.15;;;2.53;;
33954;SDS011;20233;50.804;7.126;2023-08-06T04:50:49;6.07;;;3.15;;
33954;SDS011;20233;50.804;7.126;2023-08-06T04:53:15;6.50;;;2.58;;
33954;SDS011;20233;50.804;7.126;2023-08-06T04:55:41;6.10;;;2.50;;
33954;SDS011;20233;50.804;7.126;2023-08-06T04:58:07;5.47;;;2.85;;
33954;SDS011;20233;50.804;7.126;2023-08-06T05:00:34;5.78;;;2.67;;
33954;SDS011;20233;50.804;7.126;2023-08-06T05:02:59;10.48;;;3.70;;
33954;SDS011;20233;50.804;7.126;2023-08-06T05:05:26;5.22;;;2.03;;
33954;SDS011;20233;50.804;7.126;2023-08-06T05:07:53;6.38;;;2.60;;
33954;SDS011;20233;50.804;7.126;2023-08-06T05:10:19;6.68;;;2.30;;
33954;SDS011;20233;50.804;7.126;2023-08-06T05:12:45;6.10;;;2.17;;
33954;SDS011;20233;50.804;7.126;2023-08-06T05:15:10;3.17;;;1.60;;
33954;SDS011;20233;50.804;7.126;2023-08-06T05:17:36;5.35;;;2.47;;
33954;SDS011;20233;50.804;7.126;2023-08-06T05:20:01;3.10;;;1.38;;
33954;SDS011;20233;50.804;7.126;2023-08-06T05:22:27;5.35;;;1.58;;
33954;SDS011;20233;50.804;7.126;2023-08-06T05:24:53;6.63;;;1.20;;
33954;SDS011;20233;50.804;7.126;2023-08-06T05:27:18;6.22;;;1.30;;
33954;SDS011;20233;50.804;7.126;2023-08-06T05:29:44;5.32;;;1.63;;
33954;SDS011;20233;50.804;7.126;2023-08-06T05:32:10;4.05;;;1.50;;
33954;SDS011;20233;50.804;7.126;2023-08-06T05:34:36;5.13;;;1.48;;
33954;SDS011;20233;50.804;7.126;2023-08-06T05:37:02;3.72;;;1.63;;
33954;SDS011;20233;50.804;7.126;2023-08-06T05:39:28;2.20;;;0.93;;
33954;SDS011;20233;50.804;7.126;2023-08-06T05:41:54;2.63;;;1.08;;
33954;SDS011;20233;50.804;7.126;2023-08-06T05:44:21;5.35;;;0.90;;
33954;SDS011;20233;50.804;7.126;2023-08-06T05:46:47;2.33;;;0.88;;
33954;SDS011;20233;50.804;7.126;2023-08-06T05:49:14;2.95;;;1.30;;
33954;SDS011;20233;50.804;7.126;2023-08-06T05:51:40;1.90;;;0.88;;
33954;SDS011;20233;50.804;7.126;2023-08-06T05:54:05;2.40;;;0.70;;
33954;SDS011;20233;50.804;7.126;2023-08-06T05:56:31;1.98;;;0.90;;
33954;SDS011;20233;50.804;7.126;2023-08-06T05:58:56;2.05;;;0.80;;
33954;SDS011;20233;50.804;7.126;2023-08-06T06:01:22;2.75;;;0.77;;
33954;SDS011;20233;50.804;7.126;2023-08-06T06:03:48;3.72;;;1.00;;
33954;SDS011;20233;50.804;7.126;2023-08-06T06:06:14;5.28;;;1.10;;
33954;SDS011;20233;50.804;7.126;2023-08-06T06:08:40;3.90;;;0.90;;
33954;SDS011;20233;50.804;7.126;2023-08-06T06:11:05;2.03;;;0.68;;
33954;SDS011;20233;50.804;7.126;2023-08-06T06:13:31;4.10;;;0.95;;
33954;SDS011;20233;50.804;7.126;2023-08-06T06:15:56;2.35;;;0.50;;
33954;SDS011;20233;50.804;7.126;2023-08-06T06:18:23;3.72;;;0.40;;
33954;SDS011;20233;50.804;7.126;2023-08-06T06:20:49;3.25;;;0.90;;
33954;SDS011;20233;50.804;7.126;2023-08-06T06:23:14;1.95;;;0.52;;
33954;SDS011;20233;50.804;7.126;2023-08-06T06:25:43;2.13;;;0.70;;
33954;SDS011;20233;50.804;7.126;2023-08-06T06:28:13;2.03;;;0.70;;
33954;SDS011;20233;50.804;7.126;2023-08-06T06:30:40;2.67;;;0.50;;
33954;SDS011;20233;50.804;7.126;2023-08-06T06:33:06;1.60;;;0.47;;
33954;SDS011;20233;50.804;7.126;2023-08-06T06:35:32;2.58;;;0.70;;
33954;SDS011;20233;50.804;7.126;2023-08-06T06:37:58;3.10;;;0.55;;
33954;SDS011;20233;50.804;7.126;2023-08-06T06:40:23;1.30;;;0.40;;
33954;SDS011;20233;50.804;7.126;2023-08-06T06:42:51;3.58;;;0.55;;
33954;SDS011;20233;50.804;7.126;2023-08-06T06:45:16;3.65;;;0.40;;
33954;SDS011;20233;50.804;7.126;2023-08-06T06:47:42;1.90;;;0.35;;
33954;SDS011;20233;50.804;7.126;2023-08-06T06:50:08;4.22;;;0.70;;
33954;SDS011;20233;50.804;7.126;2023-08-06T06:52:34;2.65;;;0.30;;
33954;SDS011;20233;50.804;7.126;2023-08-06T06:54:59;1.17;;;0.50;;
33954;SDS011;20233;50.804;7.126;2023-08-06T06:57:25;1.92;;;0.30;;
33954;SDS011;20233;50.804;7.126;2023-08-06T06:59:52;1.05;;;0.30;;
33954;SDS011;20233;50.804;7.126;2023-08-06T07:02:18;1.88;;;0.30;;
33954;SDS011;20233;50.804;7.126;2023-08-06T07:04:43;1.15;;;0.28;;
33954;SDS011;20233;50.804;7.126;2023-08-06T07:07:09;1.70;;;0.20;;
33954;SDS011;20233;50.804;7.126;2023-08-06T07:09:35;1.58;;;0.20;;
33954;SDS011;20233;50.804;7.126;2023-08-06T07:12:01;2.67;;;0.20;;
33954;SDS011;20233;50.804;7.126;2023-08-06T07:14:26;0.90;;;0.25;;
33954;SDS011;20233;50.804;7.126;2023-08-06T07:16:54;2.75;;;0.43;;
33954;SDS011;20233;50.804;7.126;2023-08-06T07:19:20;2.53;;;0.35;;
33954;SDS011;20233;50.804;7.126;2023-08-06T07:21:46;1.95;;;0.30;;
33954;SDS011;20233;50.804;7.126;2023-08-06T07:24:11;1.50;;;0.50;;
33954;SDS011;20233;50.804;7.126;2023-08-06T07:26:37;2.65;;;0.40;;
33954;SDS011;20233;50.804;7.126;2023-08-06T07:29:03;2.25;;;0.47;;
33954;SDS011;20233;50.804;7.126;2023-08-06T07:31:28;1.60;;;0.40;;
33954;SDS011;20233;50.804;7.126;2023-08-06T07:33:54;2.22;;;0.50;;
33954;SDS011;20233;50.804;7.126;2023-08-06T07:36:19;2.13;;;0.55;;
33954;SDS011;20233;50.804;7.126;2023-08-06T07:38:46;2.97;;;0.47;;
33954;SDS011;20233;50.804;7.126;2023-08-06T07:41:12;4.30;;;0.82;;
33954;SDS011;20233;50.804;7.126;2023-08-06T07:43:37;3.88;;;0.73;;
33954;SDS011;20233;50.804;7.126;2023-08-06T07:46:03;2.50;;;0.40;;
33954;SDS011;20233;50.804;7.126;2023-08-06T07:48:29;2.15;;;0.50;;
33954;SDS011;20233;50.804;7.126;2023-08-06T07:50:55;3.35;;;1.23;;
33954;SDS011;20233;50.804;7.126;2023-08-06T07:53:21;2.75;;;0.70;;
33954;SDS011;20233;50.804;7.126;2023-08-06T07:55:50;1.40;;;0.50;;
33954;SDS011;20233;50.804;7.126;2023-08-06T07:58:17;4.10;;;0.60;;
33954;SDS011;20233;50.804;7.126;2023-08-06T08:00:43;3.05;;;1.17;;
33954;SDS011;20233;50.804;7.126;2023-08-06T08:03:10;3.88;;;0.77;;
33954;SDS011;20233;50.804;7.126;2023-08-06T08:05:39;4.20;;;0.95;;
33954;SDS011;20233;50.804;7.126;2023-08-06T08:08:06;5.70;;;1.60;;
33954;SDS011;20233;50.804;7.126;2023-08-06T08:10:32;1.92;;;0.90;;
33954;SDS011;20233;50.804;7.126;2023-08-06T08:13:03;2.78;;;0.73;;
33954;SDS011;20233;50.804;7.126;2023-08-06T08:15:29;2.63;;;0.60;;
33954;SDS011;20233;50.804;7.126;2023-08-06T08:17:55;4.03;;;1.48;;
33954;SDS011;20233;50.804;7.126;2023-08-06T08:20:21;2.67;;;1.13;;
33954;SDS011;20233;50.804;7.126;2023-08-06T08:22:47;3.20;;;1.55;;
33954;SDS011;20233;50.804;7.126;2023-08-06T08:25:13;2.95;;;1.63;;
33954;SDS011;20233;50.804;7.126;2023-08-06T08:27:40;3.55;;;1.50;;
33954;SDS011;20233;50.804;7.126;2023-08-06T08:30:05;1.88;;;1.25;;
33954;SDS011;20233;50.804;7.126;2023-08-06T08:32:31;5.10;;;1.80;;
33954;SDS011;20233;50.804;7.126;2023-08-06T08:34:57;4.95;;;1.63;;
33954;SDS011;20233;50.804;7.126;2023-08-06T08:37:23;3.33;;;1.38;;
33954;SDS011;20233;50.804;7.126;2023-08-06T08:39:49;8.07;;;1.67;;
33954;SDS011;20233;50.804;7.126;2023-08-06T08:42:15;3.13;;;1.45;;
33954;SDS011;20233;50.804;7.126;2023-08-06T08:44:42;4.72;;;2.00;;
33954;SDS011;20233;50.804;7.126;2023-08-06T08:47:08;3.22;;;1.50;;
33954;SDS011;20233;50.804;7.126;2023-08-06T08:49:35;6.63;;;1.58;;
33954;SDS011;20233;50.804;7.126;2023-08-06T08:52:01;2.45;;;1.33;;
33954;SDS011;20233;50.804;7.126;2023-08-06T08:54:28;6.40;;;2.30;;
33954;SDS011;20233;50.804;7.126;2023-08-06T08:56:55;6.35;;;1.80;;
33954;SDS011;20233;50.804;7.126;2023-08-06T08:59:21;4.50;;;1.90;;
33954;SDS011;20233;50.804;7.126;2023-08-06T09:01:47;5.30;;;1.42;;
33954;SDS011;20233;50.804;7.126;2023-08-06T09:04:17;3.88;;;1.48;;
33954;SDS011;20233;50.804;7.126;2023-08-06T09:06:43;6.38;;;1.73;;
33954;SDS011;20233;50.804;7.126;2023-08-06T09:09:12;3.38;;;1.38;;
33954;SDS011;20233;50.804;7.126;2023-08-06T09:11:44;2.80;;;1.38;;
33954;SDS011;20233;50.804;7.126;2023-08-06T09:14:11;2.25;;;1.23;;
33954;SDS011;20233;50.804;7.126;2023-08-06T09:16:37;3.13;;;0.90;;
33954;SDS011;20233;50.804;7.126;2023-08-06T09:19:06;2.60;;;0.80;;
33954;SDS011;20233;50.804;7.126;2023-08-06T09:21:35;1.83;;;0.90;;
33954;SDS011;20233;50.804;7.126;2023-08-06T09:24:06;1.83;;;0.82;;
33954;SDS011;20233;50.804;7.126;2023-08-06T09:26:37;1.23;;;0.93;;
33954;SDS011;20233;50.804;7.126;2023-08-06T09:29:06;4.38;;;0.60;;
33954;SDS011;20233;50.804;7.126;2023-08-06T09:31:33;1.23;;;0.30;;
33954;SDS011;20233;50.804;7.126;2023-08-06T09:34:22;2.15;;;0.50;;
33954;SDS011;20233;50.804;7.126;2023-08-06T09:39:16;4.15;;;0.50;;
33954;SDS011;20233;50.804;7.126;2023-08-06T09:42:01;1.20;;;0.40;;
33954;SDS011;20233;50.804;7.126;2023-08-06T09:44:27;0.70;;;0.30;;
33954;SDS011;20233;50.804;7.126;2023-08-06T09:46:56;1.33;;;0.20;;
33954;SDS011;20233;50.804;7.126;2023-08-06T09:49:26;0.82;;;0.28;;
33954;SDS011;20233;50.804;7.126;2023-08-06T09:51:58;1.13;;;0.20;;
33954;SDS011;20233;50.804;7.126;2023-08-06T09:54:25;0.90;;;0.10;;
33954;SDS011;20233;50.804;7.126;2023-08-06T09:56:52;0.10;;;0.00;;
33954;SDS011;20233;50.804;7.126;2023-08-06T09:59:18;1.35;;;0.05;;
33954;SDS011;20233;50.804;7.126;2023-08-06T10:01:44;0.10;;;0.00;;
33954;SDS011;20233;50.804;7.126;2023-08-06T10:04:13;2.58;;;0.00;;
33954;SDS011;20233;50.804;7.126;2023-08-06T10:06:41;5.50;;;0.10;;
33954;SDS011;20233;50.804;7.126;2023-08-06T10:09:07;3.58;;;0.22;;
33954;SDS011;20233;50.804;7.126;2023-08-06T10:11:34;0.88;;;0.00;;
33954;SDS011;20233;50.804;7.126;2023-08-06T10:14:06;2.17;;;0.30;;
33954;SDS011;20233;50.804;7.126;2023-08-06T10:16:38;1.15;;;0.10;;
33954;SDS011;20233;50.804;7.126;2023-08-06T10:19:05;1.58;;;0.00;;
33954;SDS011;20233;50.804;7.126;2023-08-06T10:21:34;0.85;;;0.17;;
33954;SDS011;20233;50.804;7.126;2023-08-06T10:24:00;2.45;;;0.03;;
33954;SDS011;20233;50.804;7.126;2023-08-06T10:26:27;5.03;;;0.22;;
33954;SDS011;20233;50.804;7.126;2023-08-06T10:28:53;1.88;;;0.10;;
33954;SDS011;20233;50.804;7.126;2023-08-06T10:31:19;7.72;;;0.10;;
33954;SDS011;20233;50.804;7.126;2023-08-06T10:33:46;3.20;;;0.13;;
33954;SDS011;20233;50.804;7.126;2023-08-06T10:36:15;4.72;;;0.20;;
33954;SDS011;20233;50.804;7.126;2023-08-06T10:38:47;3.88;;;0.17;;
33954;SDS011;20233;50.804;7.126;2023-08-06T10:41:16;0.93;;;0.00;;
33954;SDS011;20233;50.804;7.126;2023-08-06T10:44:07;3.30;;;0.13;;
33954;SDS011;20233;50.804;7.126;2023-08-06T10:46:34;1.92;;;0.20;;
33954;SDS011;20233;50.804;7.126;2023-08-06T10:49:00;2.40;;;0.40;;
33954;SDS011;20233;50.804;7.126;2023-08-06T10:51:27;3.50;;;0.30;;
33954;SDS011;20233;50.804;7.126;2023-08-06T10:53:52;1.75;;;0.50;;
33954;SDS011;20233;50.804;7.126;2023-08-06T10:56:19;7.68;;;0.80;;
33954;SDS011;20233;50.804;7.126;2023-08-06T10:58:53;4.20;;;0.60;;
33954;SDS011;20233;50.804;7.126;2023-08-06T11:01:19;3.40;;;0.45;;
33954;SDS011;20233;50.804;7.126;2023-08-06T11:03:47;2.10;;;0.35;;
33954;SDS011;20233;50.804;7.126;2023-08-06T11:06:17;3.78;;;0.52;;
33954;SDS011;20233;50.804;7.126;2023-08-06T11:08:51;4.35;;;0.47;;
33954;SDS011;20233;50.804;7.126;2023-08-06T11:11:19;6.25;;;0.40;;
33954;SDS011;20233;50.804;7.126;2023-08-06T11:13:45;2.90;;;0.50;;
33954;SDS011;20233;50.804;7.126;2023-08-06T11:16:12;4.75;;;0.60;;
33954;SDS011;20233;50.804;7.126;2023-08-06T11:18:43;2.78;;;0.50;;
33954;SDS011;20233;50.804;7.126;2023-08-06T11:21:08;3.85;;;0.52;;
33954;SDS011;20233;50.804;7.126;2023-08-06T11:23:34;5.63;;;0.75;;
33954;SDS011;20233;50.804;7.126;2023-08-06T11:26:01;7.15;;;0.60;;
33954;SDS011;20233;50.804;7.126;2023-08-06T11:28:26;4.28;;;0.50;;
33954;SDS011;20233;50.804;7.126;2023-08-06T11:30:52;2.05;;;0.40;;
33954;SDS011;20233;50.804;7.126;2023-08-06T11:33:21;3.55;;;0.70;;
33954;SDS011;20233;50.804;7.126;2023-08-06T11:35:50;3.25;;;0.40;;
33954;SDS011;20233;50.804;7.126;2023-08-06T11:38:16;6.63;;;0.32;;
33954;SDS011;20233;50.804;7.126;2023-08-06T11:40:43;2.88;;;0.30;;
33954;SDS011;20233;50.804;7.126;2023-08-06T11:43:10;3.00;;;0.40;;
33954;SDS011;20233;50.804;7.126;2023-08-06T11:45:37;3.13;;;0.50;;
33954;SDS011;20233;50.804;7.126;2023-08-06T11:48:02;5.05;;;0.40;;
33954;SDS011;20233;50.804;7.126;2023-08-06T11:50:28;2.75;;;0.35;;
33954;SDS011;20233;50.804;7.126;2023-08-06T11:52:59;5.97;;;0.55;;
33954;SDS011;20233;50.804;7.126;2023-08-06T11:55:25;5.40;;;1.02;;
33954;SDS011;20233;50.804;7.126;2023-08-06T11:57:53;4.57;;;0.68;;
33954;SDS011;20233;50.804;7.126;2023-08-06T12:00:19;8.73;;;0.77;;
33954;SDS011;20233;50.804;7.126;2023-08-06T12:02:47;3.08;;;0.47;;
33954;SDS011;20233;50.804;7.126;2023-08-06T12:05:18;2.63;;;0.50;;
33954;SDS011;20233;50.804;7.126;2023-08-06T12:07:50;2.53;;;0.30;;
33954;SDS011;20233;50.804;7.126;2023-08-06T12:10:16;3.47;;;0.30;;
33954;SDS011;20233;50.804;7.126;2023-08-06T12:12:44;4.10;;;0.50;;
33954;SDS011;20233;50.804;7.126;2023-08-06T12:15:10;3.45;;;0.40;;
33954;SDS011;20233;50.804;7.126;2023-08-06T12:17:36;2.17;;;0.30;;
33954;SDS011;20233;50.804;7.126;2023-08-06T12:20:06;2.10;;;0.47;;
33954;SDS011;20233;50.804;7.126;2023-08-06T12:22:33;4.85;;;0.50;;
33954;SDS011;20233;50.804;7.126;2023-08-06T12:25:06;3.80;;;0.40;;
33954;SDS011;20233;50.804;7.126;2023-08-06T12:27:36;6.10;;;0.60;;
33954;SDS011;20233;50.804;7.126;2023-08-06T12:30:03;4.28;;;0.65;;
33954;SDS011;20233;50.804;7.126;2023-08-06T12:32:30;1.23;;;0.45;;
33954;SDS011;20233;50.804;7.126;2023-08-06T12:34:56;3.35;;;0.60;;
33954;SDS011;20233;50.804;7.126;2023-08-06T12:37:21;5.25;;;0.40;;
33954;SDS011;20233;50.804;7.126;2023-08-06T12:39:48;1.40;;;0.40;;
33954;SDS011;20233;50.804;7.126;2023-08-06T12:42:13;5.05;;;0.52;;
33954;SDS011;20233;50.804;7.126;2023-08-06T12:44:39;3.88;;;0.40;;
33954;SDS011;20233;50.804;7.126;2023-08-06T12:47:06;4.10;;;0.47;;
33954;SDS011;20233;50.804;7.126;2023-08-06T12:49:32;2.42;;;0.50;;
33954;SDS011;20233;50.804;7.126;2023-08-06T12:51:58;4.20;;;0.40;;
33954;SDS011;20233;50.804;7.126;2023-08-06T12:54:25;4.43;;;0.45;;
33954;SDS011;20233;50.804;7.126;2023-08-06T12:56:51;1.83;;;0.20;;
33954;SDS011;20233;50.804;7.126;2023-08-06T12:59:17;4.55;;;0.43;;
33954;SDS011;20233;50.804;7.126;2023-08-06T13:01:43;3.28;;;0.22;;
33954;SDS011;20233;50.804;7.126;2023-08-06T13:04:09;2.83;;;0.30;;
33954;SDS011;20233;50.804;7.126;2023-08-06T13:06:36;2.78;;;0.20;;
33954;SDS011;20233;50.804;7.126;2023-08-06T13:09:11;2.33;;;0.30;;
33954;SDS011;20233;50.804;7.126;2023-08-06T13:11:37;2.03;;;0.30;;
33954;SDS011;20233;50.804;7.126;2023-08-06T13:14:08;1.38;;;0.30;;
33954;SDS011;20233;50.804;7.126;2023-08-06T13:16:38;2.20;;;0.40;;
33954;SDS011;20233;50.804;7.126;2023-08-06T13:19:06;3.88;;;0.50;;
33954;SDS011;20233;50.804;7.126;2023-08-06T13:21:33;1.50;;;0.30;;
33954;SDS011;20233;50.804;7.126;2023-08-06T13:24:15;3.88;;;0.30;;
33954;SDS011;20233;50.804;7.126;2023-08-06T13:26:40;3.13;;;0.20;;
33954;SDS011;20233;50.804;7.126;2023-08-06T13:29:06;3.47;;;0.20;;
33954;SDS011;20233;50.804;7.126;2023-08-06T13:31:32;2.38;;;0.38;;
33954;SDS011;20233;50.804;7.126;2023-08-06T13:33:58;3.40;;;0.30;;
33954;SDS011;20233;50.804;7.126;2023-08-06T13:36:24;1.88;;;0.30;;
33954;SDS011;20233;50.804;7.126;2023-08-06T13:38:51;3.35;;;0.50;;
33954;SDS011;20233;50.804;7.126;2023-08-06T13:41:16;4.63;;;1.23;;
33954;SDS011;20233;50.804;7.126;2023-08-06T13:43:42;9.48;;;2.67;;
33954;SDS011;20233;50.804;7.126;2023-08-06T13:46:09;7.35;;;0.98;;
33954;SDS011;20233;50.804;7.126;2023-08-06T13:48:34;5.10;;;1.10;;
33954;SDS011;20233;50.804;7.126;2023-08-06T13:51:00;5.90;;;0.80;;
33954;SDS011;20233;50.804;7.126;2023-08-06T13:53:25;2.22;;;0.65;;
33954;SDS011;20233;50.804;7.126;2023-08-06T13:55:55;4.25;;;0.95;;
33954;SDS011;20233;50.804;7.126;2023-08-06T13:58:21;2.55;;;0.60;;
33954;SDS011;20233;50.804;7.126;2023-08-06T14:00:47;2.97;;;1.00;;
33954;SDS011;20233;50.804;7.126;2023-08-06T14:03:12;1.80;;;0.60;;
33954;SDS011;20233;50.804;7.126;2023-08-06T14:05:38;4.72;;;0.90;;
33954;SDS011;20233;50.804;7.126;2023-08-06T14:08:03;4.07;;;1.08;;
33954;SDS011;20233;50.804;7.126;2023-08-06T14:10:29;3.05;;;1.30;;
33954;SDS011;20233;50.804;7.126;2023-08-06T14:12:55;4.43;;;1.40;;
33954;SDS011;20233;50.804;7.126;2023-08-06T14:15:20;5.40;;;1.20;;
33954;SDS011;20233;50.804;7.126;2023-08-06T14:17:46;5.10;;;0.80;;
33954;SDS011;20233;50.804;7.126;2023-08-06T14:20:12;3.60;;;0.60;;
33954;SDS011;20233;50.804;7.126;2023-08-06T14:22:37;2.47;;;0.50;;
33954;SDS011;20233;50.804;7.126;2023-08-06T14:25:03;3.70;;;0.40;;
33954;SDS011;20233;50.804;7.126;2023-08-06T14:27:29;3.33;;;0.30;;
33954;SDS011;20233;50.804;7.126;2023-08-06T14:29:55;1.65;;;0.32;;
33954;SDS011;20233;50.804;7.126;2023-08-06T14:32:22;2.92;;;0.20;;
33954;SDS011;20233;50.804;7.126;2023-08-06T14:34:47;3.10;;;0.20;;
33954;SDS011;20233;50.804;7.126;2023-08-06T14:37:13;2.97;;;0.25;;
33954;SDS011;20233;50.804;7.126;2023-08-06T14:39:38;2.85;;;0.25;;
33954;SDS011;20233;50.804;7.126;2023-08-06T14:42:04;3.97;;;0.30;;
33954;SDS011;20233;50.804;7.126;2023-08-06T14:44:30;7.03;;;1.08;;
33954;SDS011;20233;50.804;7.126;2023-08-06T14:46:55;5.32;;;0.30;;
33954;SDS011;20233;50.804;7.126;2023-08-06T14:49:21;3.35;;;0.47;;
33954;SDS011;20233;50.804;7.126;2023-08-06T14:51:48;5.68;;;0.43;;
33954;SDS011;20233;50.804;7.126;2023-08-06T14:54:14;2.83;;;0.20;;